createdAt,value
2018-04-13T00:00:43.332Z,12.80
2018-04-13T00:01:46.662Z,12.80
2018-04-13T00:02:50.025Z,12.80
2018-04-13T00:03:53.392Z,12.80
2018-04-13T00:04:56.723Z,12.80
2018-04-13T00:06:00.128Z,12.70
2018-04-13T00:07:03.864Z,12.70
2018-04-13T00:08:07.230Z,12.70
2018-04-13T00:09:10.663Z,12.70
2018-04-13T00:10:13.996Z,12.60
2018-04-13T00:11:17.334Z,12.60
2018-04-13T00:12:20.725Z,12.60
2018-04-13T00:13:24.197Z,12.60
2018-04-13T00:14:28.321Z,12.50
2018-04-13T00:15:31.685Z,12.50
2018-04-13T00:16:35.759Z,12.40
2018-04-13T00:17:39.096Z,12.40
2018-04-13T00:18:42.463Z,12.40
2018-04-13T00:19:45.846Z,12.40
2018-04-13T00:20:49.221Z,12.40
2018-04-13T00:21:52.717Z,12.40
2018-04-13T00:22:56.134Z,12.40
2018-04-13T00:23:59.496Z,12.50
2018-04-13T00:25:02.896Z,12.60
2018-04-13T00:26:06.301Z,12.60
2018-04-13T00:27:09.640Z,12.50
2018-04-13T00:28:13.021Z,12.50
2018-04-13T00:29:17.159Z,12.50
2018-04-13T00:30:20.510Z,12.50
2018-04-13T00:31:24.650Z,12.40
2018-04-13T00:32:28.722Z,12.40
2018-04-13T00:33:32.890Z,12.30
2018-04-13T00:34:37.068Z,12.30
2018-04-13T00:35:40.451Z,12.30
2018-04-13T00:36:43.776Z,12.30
2018-04-13T00:37:47.133Z,12.20
2018-04-13T00:38:50.520Z,12.20
2018-04-13T00:39:53.919Z,12.20
2018-04-13T00:40:57.227Z,12.10
2018-04-13T00:42:00.552Z,12.10
2018-04-13T00:43:03.948Z,12.00
2018-04-13T00:44:07.309Z,12.00
2018-04-13T00:45:10.639Z,12.00
2018-04-13T00:46:14.014Z,12.00
2018-04-13T00:47:17.875Z,11.90
2018-04-13T00:48:21.470Z,11.90
2018-04-13T00:49:25.604Z,12.00
2018-04-13T00:50:28.950Z,12.00
2018-04-13T00:51:33.060Z,12.00
2018-04-13T00:52:37.160Z,12.00
2018-04-13T00:53:41.242Z,12.00
2018-04-13T00:54:44.580Z,12.10
2018-04-13T00:55:48.266Z,12.10
2018-04-13T00:56:51.569Z,12.00
2018-04-13T00:57:54.905Z,12.00
2018-04-13T00:58:58.974Z,12.00
2018-04-13T01:00:02.287Z,12.00
2018-04-13T01:01:06.416Z,11.90
2018-04-13T01:02:09.750Z,11.90
2018-04-13T01:03:13.891Z,11.90
2018-04-13T01:04:17.197Z,11.80
2018-04-13T01:05:20.505Z,11.80
2018-04-13T01:06:24.631Z,11.80
2018-04-13T01:07:28.067Z,11.70
2018-04-13T01:08:32.099Z,11.70
2018-04-13T01:09:35.390Z,11.70
2018-04-13T01:10:38.707Z,11.70
2018-04-13T01:11:42.045Z,11.70
2018-04-13T01:12:45.362Z,11.70
2018-04-13T01:13:48.690Z,11.70
2018-04-13T01:14:52.013Z,11.60
2018-04-13T01:15:56.141Z,11.60
2018-04-13T01:16:59.489Z,11.60
2018-04-13T01:18:02.826Z,11.60
2018-04-13T01:19:06.894Z,11.60
2018-04-13T01:20:10.178Z,11.60
2018-04-13T01:21:13.570Z,11.50
2018-04-13T01:22:16.949Z,11.50
2018-04-13T01:23:20.318Z,11.50
2018-04-13T01:24:23.663Z,11.50
2018-04-13T01:25:26.983Z,11.40
2018-04-13T01:26:30.295Z,11.40
2018-04-13T01:27:34.467Z,11.30
2018-04-13T01:28:37.777Z,11.40
2018-04-13T01:29:41.136Z,11.40
2018-04-13T01:30:44.445Z,11.30
2018-04-13T01:31:47.798Z,11.30
2018-04-13T01:32:51.144Z,11.30
2018-04-13T01:33:55.229Z,11.20
2018-04-13T01:34:58.546Z,11.20
2018-04-13T01:36:01.871Z,11.20
2018-04-13T01:37:05.172Z,11.20
2018-04-13T01:38:08.549Z,11.10
2018-04-13T01:39:11.921Z,11.10
2018-04-13T01:40:15.228Z,11.10
2018-04-13T01:41:18.547Z,11.10
2018-04-13T01:42:21.895Z,11.10
2018-04-13T01:43:25.279Z,11.00
2018-04-13T01:44:28.642Z,11.10
2018-04-13T01:45:31.934Z,11.10
2018-04-13T01:46:35.231Z,11.10
2018-04-13T01:47:38.566Z,11.10
2018-04-13T01:48:41.880Z,11.00
2018-04-13T01:49:45.183Z,11.10
2018-04-13T01:50:48.564Z,11.00
2018-04-13T01:51:51.866Z,11.00
2018-04-13T01:52:55.190Z,11.00
2018-04-13T01:53:58.752Z,11.00
2018-04-13T01:55:02.082Z,11.00
2018-04-13T01:56:05.425Z,10.90
2018-04-13T01:57:08.748Z,10.90
2018-04-13T01:58:12.092Z,11.00
2018-04-13T01:59:15.424Z,11.10
2018-04-13T02:00:18.735Z,11.00
2018-04-13T02:01:22.110Z,11.00
2018-04-13T02:02:25.406Z,11.00
2018-04-13T02:03:28.704Z,11.00
2018-04-13T02:04:32.051Z,11.00
2018-04-13T02:05:35.394Z,11.00
2018-04-13T02:06:40.192Z,11.00
2018-04-13T02:07:43.535Z,10.90
2018-04-13T02:08:46.880Z,11.00
2018-04-13T02:09:51.028Z,11.00
2018-04-13T02:10:54.479Z,10.90
2018-04-13T02:11:58.581Z,11.00
2018-04-13T02:13:02.648Z,11.00
2018-04-13T02:14:05.969Z,11.00
2018-04-13T02:15:09.327Z,11.00
2018-04-13T02:16:12.688Z,11.00
2018-04-13T02:17:16.089Z,11.00
2018-04-13T02:18:19.434Z,11.00
2018-04-13T02:19:22.802Z,10.90
2018-04-13T02:20:26.126Z,11.00
2018-04-13T02:21:29.431Z,11.00
2018-04-13T02:22:32.736Z,10.90
2018-04-13T02:23:36.811Z,10.90
2018-04-13T02:24:40.110Z,10.90
2018-04-13T02:25:43.459Z,10.80
2018-04-13T02:26:47.306Z,10.80
2018-04-13T02:27:50.640Z,10.80
2018-04-13T02:28:54.250Z,10.70
2018-04-13T02:29:57.570Z,10.70
2018-04-13T02:31:01.926Z,10.70
2018-04-13T02:32:05.238Z,10.70
2018-04-13T02:33:09.371Z,10.60
2018-04-13T02:34:13.497Z,10.60
2018-04-13T02:35:17.096Z,10.60
2018-04-13T02:36:20.466Z,10.60
2018-04-13T02:37:24.561Z,10.50
2018-04-13T02:38:28.644Z,10.50
2018-04-13T02:39:32.717Z,10.50
2018-04-13T02:40:36.829Z,10.50
2018-04-13T02:41:40.147Z,10.50
2018-04-13T02:42:44.287Z,10.40
2018-04-13T02:43:47.648Z,10.40
2018-04-13T02:44:51.061Z,10.40
2018-04-13T02:45:54.409Z,10.40
2018-04-13T02:46:58.085Z,10.40
2018-04-13T02:48:01.488Z,10.40
2018-04-13T02:49:04.846Z,10.40
2018-04-13T02:50:08.162Z,10.40
2018-04-13T02:51:12.264Z,10.30
2018-04-13T02:52:15.630Z,10.30
2018-04-13T02:53:19.873Z,10.30
2018-04-13T02:54:23.192Z,10.30
2018-04-13T02:55:26.519Z,10.30
2018-04-13T02:56:30.224Z,10.20
2018-04-13T02:57:33.602Z,10.20
2018-04-13T02:58:36.906Z,10.20
2018-04-13T02:59:40.272Z,10.30
2018-04-13T03:00:43.584Z,10.20
2018-04-13T03:01:46.902Z,10.20
2018-04-13T03:02:50.246Z,10.30
2018-04-13T03:03:53.543Z,10.30
2018-04-13T03:06:07.229Z,10.30
2018-04-13T03:07:11.307Z,10.30
2018-04-13T03:08:14.629Z,10.20
2018-04-13T03:09:17.993Z,10.20
2018-04-13T03:10:21.359Z,10.20
2018-04-13T03:11:24.692Z,10.20
2018-04-13T03:12:28.754Z,10.10
2018-04-13T03:13:32.157Z,10.10
2018-04-13T03:14:35.508Z,10.10
2018-04-13T03:15:39.618Z,10.20
2018-04-13T03:16:42.981Z,10.20
2018-04-13T03:17:46.314Z,10.20
2018-04-13T03:18:49.761Z,10.20
2018-04-13T03:19:53.046Z,10.20
2018-04-13T03:20:57.125Z,10.20
2018-04-13T03:22:00.438Z,10.10
2018-04-13T03:23:03.746Z,10.10
2018-04-13T03:24:07.965Z,10.10
2018-04-13T03:25:11.326Z,10.20
2018-04-13T03:26:14.679Z,10.30
2018-04-13T03:27:18.024Z,10.30
2018-04-13T03:28:21.469Z,10.20
2018-04-13T03:29:24.904Z,10.20
2018-04-13T03:30:28.288Z,10.20
2018-04-13T03:31:32.376Z,10.10
2018-04-13T03:32:35.705Z,10.10
2018-04-13T03:33:39.039Z,10.10
2018-04-13T03:34:42.408Z,10.10
2018-04-13T03:35:45.710Z,10.00
2018-04-13T03:36:49.049Z,10.00
2018-04-13T03:37:52.413Z,10.00
2018-04-13T03:38:56.472Z,10.00
2018-04-13T03:39:59.826Z,10.00
2018-04-13T03:41:03.132Z,10.00
2018-04-13T03:42:06.426Z,10.00
2018-04-13T03:43:09.717Z,10.00
2018-04-13T03:44:13.024Z,9.90
2018-04-13T03:45:16.460Z,9.90
2018-04-13T03:46:19.773Z,9.90
2018-04-13T03:47:23.132Z,9.90
2018-04-13T03:48:27.201Z,9.90
2018-04-13T03:49:30.532Z,9.80
2018-04-13T03:50:34.041Z,9.90
2018-04-13T03:51:38.221Z,9.90
2018-04-13T03:52:41.569Z,9.90
2018-04-13T03:53:44.895Z,9.90
2018-04-13T03:54:48.976Z,9.90
2018-04-13T03:55:53.210Z,9.90
2018-04-13T03:56:56.591Z,9.80
2018-04-13T03:57:59.957Z,9.80
2018-04-13T03:59:03.243Z,9.80
2018-04-13T04:00:06.661Z,9.80
2018-04-13T04:01:10.006Z,9.80
2018-04-13T04:02:13.358Z,9.80
2018-04-13T04:03:16.633Z,9.80
2018-04-13T04:04:20.014Z,9.80
2018-04-13T04:05:23.377Z,9.80
2018-04-13T04:06:26.780Z,9.80
2018-04-13T04:07:30.078Z,9.80
2018-04-13T04:08:33.465Z,9.80
2018-04-13T04:09:37.553Z,9.80
2018-04-13T04:10:41.532Z,9.80
2018-04-13T04:11:44.906Z,9.70
2018-04-13T04:12:48.240Z,9.80
2018-04-13T04:13:51.602Z,9.80
2018-04-13T04:14:54.965Z,9.80
2018-04-13T04:15:58.350Z,9.90
2018-04-13T04:17:01.742Z,9.90
2018-04-13T04:18:05.050Z,9.90
2018-04-13T04:19:08.370Z,9.80
2018-04-13T04:20:29.310Z,9.80
2018-04-13T04:21:50.219Z,9.80
2018-04-13T04:23:11.079Z,9.80
2018-04-13T04:24:31.914Z,9.80
2018-04-13T04:27:18.554Z,9.80
2018-04-13T04:28:21.926Z,9.80
2018-04-13T04:29:25.257Z,9.80
2018-04-13T04:30:28.622Z,9.80
2018-04-13T04:32:42.631Z,9.80
2018-04-13T04:33:46.003Z,9.80
2018-04-13T04:34:49.297Z,9.80
2018-04-13T04:35:52.617Z,9.80
2018-04-13T04:36:55.926Z,9.70
2018-04-13T04:37:59.251Z,9.70
2018-04-13T04:39:02.601Z,9.70
2018-04-13T04:40:05.949Z,9.70
2018-04-13T04:41:09.290Z,9.70
2018-04-13T04:42:12.900Z,9.70
2018-04-13T04:43:16.226Z,9.70
2018-04-13T04:44:19.605Z,9.80
2018-04-13T04:45:22.921Z,9.70
2018-04-13T04:46:26.891Z,9.70
2018-04-13T04:47:30.227Z,9.70
2018-04-13T04:48:33.532Z,9.70
2018-04-13T04:49:36.884Z,9.70
2018-04-13T04:50:40.212Z,9.70
2018-04-13T04:51:43.709Z,9.70
2018-04-13T04:52:47.781Z,9.80
2018-04-13T04:53:51.137Z,9.70
2018-04-13T04:54:54.461Z,9.80
2018-04-13T04:55:58.337Z,9.80
2018-04-13T04:57:01.696Z,9.80
2018-04-13T04:58:05.011Z,9.80
2018-04-13T04:59:08.346Z,9.80
2018-04-13T05:00:11.758Z,9.80
2018-04-13T05:01:15.366Z,9.80
2018-04-13T05:02:19.473Z,9.80
2018-04-13T05:03:22.853Z,9.80
2018-04-13T05:04:26.204Z,9.80
2018-04-13T05:05:30.620Z,9.80
2018-04-13T05:06:34.233Z,9.80
2018-04-13T05:07:37.545Z,9.80
2018-04-13T05:08:41.644Z,9.80
2018-04-13T05:09:45.775Z,9.90
2018-04-13T05:10:49.111Z,9.80
2018-04-13T05:11:54.770Z,9.80
2018-04-13T05:12:58.998Z,9.90
2018-04-13T05:14:02.311Z,9.80
2018-04-13T05:15:07.884Z,9.90
2018-04-13T05:16:12.115Z,9.90
2018-04-13T05:17:16.253Z,9.90
2018-04-13T05:18:19.644Z,9.90
2018-04-13T05:19:23.040Z,9.90
2018-04-13T05:20:26.461Z,10.00
2018-04-13T05:21:30.591Z,10.00
2018-04-13T05:22:34.042Z,10.00
2018-04-13T05:23:37.519Z,10.00
2018-04-13T05:24:41.093Z,10.00
2018-04-13T05:25:44.414Z,10.10
2018-04-13T05:26:47.799Z,10.10
2018-04-13T05:27:51.234Z,10.10
2018-04-13T05:28:54.593Z,10.10
2018-04-13T05:29:58.772Z,10.10
2018-04-13T05:31:02.183Z,10.10
2018-04-13T05:32:06.336Z,10.20
2018-04-13T05:33:09.721Z,10.20
2018-04-13T05:34:13.186Z,10.30
2018-04-13T05:36:31.503Z,10.40
2018-04-13T05:37:36.045Z,10.60
2018-04-13T05:38:39.408Z,10.50
2018-04-13T05:39:42.748Z,10.50
2018-04-13T05:40:46.069Z,10.50
2018-04-13T05:41:49.410Z,10.60
2018-04-13T05:42:52.781Z,10.60
2018-04-13T05:43:56.135Z,10.70
2018-04-13T05:44:59.441Z,10.70
2018-04-13T05:46:02.876Z,10.80
2018-04-13T05:47:06.327Z,10.80
2018-04-13T05:48:09.817Z,10.80
2018-04-13T05:49:13.158Z,10.80
2018-04-13T05:50:16.617Z,10.80
2018-04-13T05:51:20.895Z,10.80
2018-04-13T05:52:24.284Z,10.90
2018-04-13T05:53:27.674Z,10.80
2018-04-13T05:54:32.655Z,10.90
2018-04-13T05:55:36.331Z,11.10
2018-04-13T05:56:39.726Z,11.20
2018-04-13T05:57:43.185Z,11.20
2018-04-13T05:58:46.576Z,11.30
2018-04-13T05:59:49.925Z,11.30
2018-04-13T06:00:54.041Z,11.60
2018-04-13T06:01:57.342Z,11.60
2018-04-13T06:03:00.681Z,11.70
2018-04-13T06:04:04.012Z,11.60
2018-04-13T06:05:08.113Z,11.60
2018-04-13T06:06:11.418Z,11.50
2018-04-13T06:07:14.785Z,11.50
2018-04-13T06:08:18.111Z,11.60
2018-04-13T06:09:21.480Z,11.50
2018-04-13T06:10:25.564Z,11.40
2018-04-13T06:11:28.971Z,11.40
2018-04-13T06:12:32.314Z,11.30
2018-04-13T06:13:35.648Z,11.30
2018-04-13T06:14:39.048Z,11.40
2018-04-13T06:15:42.384Z,11.40
2018-04-13T06:16:46.070Z,11.50
2018-04-13T06:17:49.400Z,11.50
2018-04-13T06:18:53.593Z,11.50
2018-04-13T06:19:57.061Z,11.50
2018-04-13T06:21:00.355Z,11.60
2018-04-13T06:22:03.880Z,11.60
2018-04-13T06:23:07.210Z,11.50
2018-04-13T06:24:10.539Z,11.50
2018-04-13T06:25:14.658Z,11.50
2018-04-13T06:26:18.038Z,11.50
2018-04-13T06:27:21.357Z,11.50
2018-04-13T06:28:24.679Z,11.50
2018-04-13T06:29:27.990Z,11.50
2018-04-13T06:30:31.365Z,11.60
2018-04-13T06:31:34.694Z,11.60
2018-04-13T06:32:38.023Z,11.70
2018-04-13T06:33:41.378Z,11.70
2018-04-13T06:34:44.707Z,11.80
2018-04-13T06:35:48.434Z,11.80
2018-04-13T06:36:55.044Z,11.70
2018-04-13T06:37:55.094Z,11.70
2018-04-13T06:38:58.525Z,11.70
2018-04-13T06:40:01.879Z,11.80
2018-04-13T06:41:06.178Z,11.90
2018-04-13T06:42:09.592Z,11.90
2018-04-13T06:43:12.956Z,11.90
2018-04-13T06:44:16.273Z,12.00
2018-04-13T06:45:19.599Z,12.00
2018-04-13T06:46:22.961Z,12.00
2018-04-13T06:47:26.330Z,12.00
2018-04-13T06:48:29.619Z,11.90
2018-04-13T06:49:32.988Z,11.90
2018-04-13T06:50:36.388Z,11.80
2018-04-13T06:51:39.844Z,11.80
2018-04-13T06:52:43.216Z,11.90
2018-04-13T06:53:46.516Z,12.00
2018-04-13T06:54:49.829Z,11.90
2018-04-13T06:55:53.182Z,12.00
2018-04-13T06:56:56.593Z,12.10
2018-04-13T06:57:59.930Z,12.10
2018-04-13T06:59:03.245Z,12.20
2018-04-13T07:00:06.644Z,12.20
2018-04-13T07:01:09.965Z,12.30
2018-04-13T07:02:13.306Z,12.30
2018-04-13T07:03:17.339Z,12.40
2018-04-13T07:04:20.680Z,12.50
2018-04-13T07:05:24.872Z,12.60
2018-04-13T07:06:29.029Z,12.70
2018-04-13T07:07:32.371Z,12.70
2018-04-13T07:08:35.766Z,12.70
2018-04-13T07:09:39.939Z,12.70
2018-04-13T07:10:43.388Z,12.70
2018-04-13T07:11:46.798Z,12.70
2018-04-13T07:12:50.539Z,12.80
2018-04-13T07:13:53.895Z,12.80
2018-04-13T07:14:57.273Z,12.90
2018-04-13T07:16:01.357Z,13.00
2018-04-13T07:17:04.695Z,13.00
2018-04-13T07:18:08.056Z,13.10
2018-04-13T07:19:11.418Z,13.00
2018-04-13T07:20:14.792Z,13.20
2018-04-13T07:21:18.104Z,13.20
2018-04-13T07:22:22.164Z,13.20
2018-04-13T07:23:25.556Z,13.20
2018-04-13T07:24:28.903Z,13.30
2018-04-13T07:25:32.254Z,13.30
2018-04-13T07:26:36.345Z,13.30
2018-04-13T07:27:39.659Z,13.20
2018-04-13T07:28:43.141Z,13.30
2018-04-13T07:29:46.462Z,13.40
2018-04-13T07:30:50.527Z,13.50
2018-04-13T07:31:53.964Z,13.50
2018-04-13T07:32:57.292Z,13.70
2018-04-13T07:34:01.378Z,13.80
2018-04-13T07:35:04.722Z,13.70
2018-04-13T07:36:08.099Z,13.70
2018-04-13T07:37:12.001Z,13.50
2018-04-13T07:38:15.362Z,13.60
2018-04-13T07:39:18.740Z,13.80
2018-04-13T07:40:22.822Z,13.80
2018-04-13T07:42:25.208Z,13.90
2018-04-13T07:43:28.501Z,13.90
2018-04-13T07:44:31.956Z,14.00
2018-04-13T07:45:35.298Z,14.00
2018-04-13T07:46:38.657Z,14.00
2018-04-13T07:47:41.994Z,14.00
2018-04-13T07:48:45.308Z,14.00
2018-04-13T07:49:48.650Z,14.10
2018-04-13T07:50:52.011Z,14.20
2018-04-13T07:51:55.516Z,14.30
2018-04-13T07:52:58.674Z,14.30
2018-04-13T07:54:02.007Z,14.50
2018-04-13T07:55:05.323Z,14.40
2018-04-13T07:56:09.397Z,14.10
2018-04-13T07:57:12.707Z,14.10
2018-04-13T07:58:16.017Z,14.20
2018-04-13T07:59:19.343Z,14.20
2018-04-13T08:00:22.677Z,14.30
2018-04-13T08:01:25.984Z,14.40
2018-04-13T08:02:29.306Z,14.40
2018-04-13T08:03:32.632Z,14.40
2018-04-13T08:04:36.142Z,14.40
2018-04-13T08:05:39.502Z,14.60
2018-04-13T08:06:42.863Z,14.80
2018-04-13T08:07:46.967Z,14.60
2018-04-13T08:08:50.325Z,14.50
2018-04-13T08:09:53.653Z,14.50
2018-04-13T08:10:57.765Z,14.40
2018-04-13T08:12:01.826Z,14.40
2018-04-13T08:13:05.151Z,14.40
2018-04-13T08:14:08.463Z,14.30
2018-04-13T08:15:11.811Z,14.20
2018-04-13T08:16:15.227Z,14.10
2018-04-13T08:17:18.707Z,14.10
2018-04-13T08:18:22.518Z,14.30
2018-04-13T08:19:26.067Z,14.30
2018-04-13T08:20:30.897Z,14.40
2018-04-13T08:21:34.213Z,14.40
2018-04-13T08:22:38.421Z,14.60
2018-04-13T08:23:41.790Z,14.50
2018-04-13T08:24:45.096Z,14.50
2018-04-13T08:25:48.905Z,14.50
2018-04-13T08:26:52.240Z,14.40
2018-04-13T08:27:55.551Z,14.50
2018-04-13T08:28:58.871Z,14.70
2018-04-13T08:30:02.197Z,14.80
2018-04-13T08:31:05.505Z,14.80
2018-04-13T08:32:08.838Z,14.80
2018-04-13T08:33:12.180Z,14.80
2018-04-13T08:34:15.508Z,14.80
2018-04-13T08:35:19.609Z,15.00
2018-04-13T08:36:22.953Z,15.00
2018-04-13T08:37:26.308Z,15.10
2018-04-13T08:38:29.614Z,15.10
2018-04-13T08:39:32.918Z,15.20
2018-04-13T08:40:36.297Z,15.10
2018-04-13T08:41:39.640Z,15.10
2018-04-13T08:42:42.975Z,15.10
2018-04-13T08:43:46.266Z,15.10
2018-04-13T08:44:49.581Z,15.20
2018-04-13T08:45:53.658Z,15.20
2018-04-13T08:46:56.971Z,15.20
2018-04-13T08:48:00.320Z,15.30
2018-04-13T08:49:03.791Z,15.40
2018-04-13T08:50:07.070Z,15.50
2018-04-13T08:51:10.372Z,15.50
2018-04-13T08:52:13.678Z,15.40
2018-04-13T08:53:17.000Z,15.30
2018-04-13T08:54:20.327Z,15.20
2018-04-13T08:55:23.675Z,15.10
2018-04-13T08:56:26.959Z,15.10
2018-04-13T08:57:30.278Z,15.10
2018-04-13T08:58:33.622Z,15.10
2018-04-13T08:59:36.932Z,15.20
2018-04-13T09:00:40.299Z,15.20
2018-04-13T09:01:43.598Z,15.20
2018-04-13T09:02:46.911Z,15.30
2018-04-13T09:03:50.283Z,15.40
2018-04-13T09:04:53.605Z,15.40
2018-04-13T09:05:57.730Z,15.50
2018-04-13T09:07:01.086Z,15.40
2018-04-13T09:08:04.416Z,15.40
2018-04-13T09:09:07.772Z,15.40
2018-04-13T09:10:11.084Z,15.40
2018-04-13T09:11:14.387Z,15.50
2018-04-13T09:12:17.731Z,15.60
2018-04-13T09:13:21.904Z,15.60
2018-04-13T09:14:25.260Z,15.60
2018-04-13T09:15:29.458Z,15.70
2018-04-13T09:16:33.513Z,15.80
2018-04-13T09:17:36.846Z,15.80
2018-04-13T09:18:40.152Z,15.80
2018-04-13T09:19:43.469Z,15.80
2018-04-13T09:20:47.598Z,16.00
2018-04-13T09:21:50.892Z,16.00
2018-04-13T09:22:54.954Z,15.70
2018-04-13T09:23:59.033Z,15.80
2018-04-13T09:25:02.404Z,15.70
2018-04-13T09:26:05.718Z,15.80
2018-04-13T09:27:09.835Z,15.80
2018-04-13T09:28:13.940Z,15.80
2018-04-13T09:29:18.016Z,15.90
2018-04-13T09:30:22.514Z,15.80
2018-04-13T09:31:25.918Z,16.00
2018-04-13T09:32:29.258Z,16.00
2018-04-13T09:33:32.668Z,16.20
2018-04-13T09:34:35.995Z,16.10
2018-04-13T09:35:39.623Z,16.20
2018-04-13T09:36:43.138Z,16.10
2018-04-13T09:37:46.494Z,16.10
2018-04-13T09:38:49.820Z,16.10
2018-04-13T09:39:53.153Z,16.00
2018-04-13T09:40:56.496Z,16.10
2018-04-13T09:42:00.566Z,16.20
2018-04-13T09:43:03.886Z,16.20
2018-04-13T09:44:07.221Z,16.30
2018-04-13T09:45:10.512Z,16.10
2018-04-13T09:46:13.887Z,16.10
2018-04-13T09:47:17.199Z,16.20
2018-04-13T09:48:20.513Z,16.10
2018-04-13T09:49:23.877Z,16.00
2018-04-13T09:50:27.294Z,16.00
2018-04-13T09:51:30.796Z,16.10
2018-04-13T09:52:34.117Z,16.20
2018-04-13T09:53:37.426Z,16.10
2018-04-13T09:54:40.765Z,15.90
2018-04-13T09:55:44.091Z,15.80
2018-04-13T09:56:47.471Z,15.90
2018-04-13T09:57:50.768Z,15.90
2018-04-13T09:58:54.099Z,16.10
2018-04-13T09:59:57.429Z,16.00
2018-04-13T10:01:00.745Z,15.90
2018-04-13T10:02:04.117Z,16.00
2018-04-13T10:03:12.956Z,16.00
2018-04-13T10:04:16.271Z,15.90
2018-04-13T10:05:19.652Z,15.90
2018-04-13T10:06:22.970Z,16.10
2018-04-13T10:07:26.454Z,16.10
2018-04-13T10:08:29.765Z,16.10
2018-04-13T10:09:33.836Z,16.00
2018-04-13T10:10:37.281Z,16.00
2018-04-13T10:11:40.647Z,15.90
2018-04-13T10:12:44.798Z,15.90
2018-04-13T10:13:48.103Z,15.90
2018-04-13T10:14:52.093Z,16.00
2018-04-13T10:15:55.408Z,16.10
2018-04-13T10:16:58.728Z,16.10
2018-04-13T10:18:02.079Z,16.00
2018-04-13T10:19:05.396Z,15.90
2018-04-13T10:20:08.814Z,15.80
2018-04-13T10:21:12.128Z,16.00
2018-04-13T10:22:15.466Z,16.00
2018-04-13T10:23:18.873Z,15.90
2018-04-13T10:24:22.497Z,15.90
2018-04-13T10:25:26.010Z,16.00
2018-04-13T10:26:29.536Z,16.10
2018-04-13T10:27:33.148Z,15.70
2018-04-13T10:28:37.172Z,15.60
2018-04-13T10:29:40.557Z,15.70
2018-04-13T10:30:43.885Z,15.80
2018-04-13T10:31:47.208Z,15.80
2018-04-13T10:32:50.537Z,15.70
2018-04-13T10:33:53.838Z,15.70
2018-04-13T10:34:57.179Z,15.70
2018-04-13T10:36:01.259Z,15.90
2018-04-13T10:38:06.908Z,15.90
2018-04-13T10:39:10.238Z,15.80
2018-04-13T10:40:13.577Z,15.70
2018-04-13T10:41:16.964Z,15.80
2018-04-13T10:42:20.631Z,15.90
2018-04-13T10:43:23.994Z,15.90
2018-04-13T10:44:27.336Z,16.00
2018-04-13T10:45:30.869Z,15.90
2018-04-13T10:46:34.291Z,16.00
2018-04-13T10:47:37.644Z,15.90
2018-04-13T10:48:41.243Z,15.80
2018-04-13T10:49:44.616Z,15.90
2018-04-13T10:50:48.004Z,16.00
2018-04-13T10:51:52.137Z,16.10
2018-04-13T10:52:55.483Z,16.00
2018-04-13T10:53:58.936Z,15.90
2018-04-13T10:55:02.413Z,15.80
2018-04-13T10:56:05.738Z,15.80
2018-04-13T10:57:09.102Z,15.50
2018-04-13T10:58:12.540Z,15.60
2018-04-13T10:59:15.936Z,15.60
2018-04-13T11:00:19.286Z,15.50
2018-04-13T11:01:22.633Z,15.50
2018-04-13T11:02:25.927Z,15.60
2018-04-13T11:03:29.304Z,15.50
2018-04-13T11:04:32.710Z,15.50
2018-04-13T11:05:36.833Z,15.40
2018-04-13T11:06:40.154Z,15.40
2018-04-13T11:07:43.481Z,15.50
2018-04-13T11:08:46.882Z,15.60
2018-04-13T11:09:50.249Z,15.70
2018-04-13T11:10:54.543Z,15.70
2018-04-13T11:11:57.835Z,15.60
2018-04-13T11:13:01.148Z,15.60
2018-04-13T11:14:04.458Z,15.70
2018-04-13T11:15:07.823Z,15.70
2018-04-13T11:16:11.176Z,15.40
2018-04-13T11:17:14.492Z,15.50
2018-04-13T11:18:17.794Z,15.50
2018-04-13T11:19:21.180Z,15.50
2018-04-13T11:20:24.569Z,15.70
2018-04-13T11:21:27.926Z,15.80
2018-04-13T11:22:31.242Z,15.90
2018-04-13T11:23:34.541Z,16.00
2018-04-13T11:24:37.878Z,16.00
2018-04-13T11:25:41.210Z,15.80
2018-04-13T11:26:44.561Z,16.00
2018-04-13T11:27:47.906Z,16.00
2018-04-13T11:28:51.221Z,16.00
2018-04-13T11:29:54.543Z,16.10
2018-04-13T11:30:57.929Z,16.10
2018-04-13T11:32:01.263Z,16.20
2018-04-13T11:33:05.353Z,16.30
2018-04-13T11:34:08.654Z,16.20
2018-04-13T11:35:11.960Z,16.10
2018-04-13T11:36:15.269Z,16.00
2018-04-13T11:38:37.385Z,16.10
2018-04-13T11:39:40.728Z,16.00
2018-04-13T11:40:45.101Z,15.80
2018-04-13T11:41:48.531Z,15.80
2018-04-13T11:42:51.899Z,15.70
2018-04-13T11:43:55.276Z,15.80
2018-04-13T11:44:58.582Z,15.80
2018-04-13T11:46:02.693Z,15.90
2018-04-13T11:47:06.778Z,16.00
2018-04-13T11:48:10.855Z,15.90
2018-04-13T11:50:27.260Z,16.00
2018-04-13T11:51:30.577Z,16.00
2018-04-13T11:52:33.900Z,16.00
2018-04-13T11:53:37.211Z,16.00
2018-04-13T11:54:40.550Z,16.10
2018-04-13T11:55:43.883Z,16.10
2018-04-13T11:56:47.203Z,16.00
2018-04-13T11:57:50.519Z,16.10
2018-04-13T11:58:53.859Z,16.30
2018-04-13T11:59:57.165Z,16.40
2018-04-13T12:01:00.512Z,16.30
2018-04-13T12:02:04.641Z,16.50
2018-04-13T12:03:09.507Z,16.60
2018-04-13T12:04:12.811Z,16.60
2018-04-13T12:05:16.136Z,16.60
2018-04-13T12:06:20.240Z,16.30
2018-04-13T12:07:23.539Z,16.20
2018-04-13T12:08:26.871Z,16.10
2018-04-13T12:09:30.217Z,16.10
2018-04-13T12:10:33.586Z,16.20
2018-04-13T12:11:36.944Z,16.30
2018-04-13T12:12:40.272Z,16.30
2018-04-13T12:13:43.764Z,16.40
2018-04-13T12:14:47.108Z,16.50
2018-04-13T12:15:51.243Z,16.40
2018-04-13T12:16:54.603Z,16.40
2018-04-13T12:17:57.933Z,16.60
2018-04-13T12:19:01.995Z,16.30
2018-04-13T12:20:06.080Z,16.60
2018-04-13T12:21:09.543Z,16.50
2018-04-13T12:22:12.909Z,16.60
2018-04-13T12:23:16.219Z,16.70
2018-04-13T12:24:19.665Z,16.80
2018-04-13T12:26:41.898Z,17.00
2018-04-13T12:27:45.236Z,16.90
2018-04-13T12:28:48.687Z,17.00
2018-04-13T12:29:52.004Z,17.00
2018-04-13T12:30:55.332Z,16.80
2018-04-13T12:31:58.749Z,16.90
2018-04-13T12:33:02.117Z,16.90
2018-04-13T12:34:05.512Z,17.00
2018-04-13T12:35:08.903Z,16.90
2018-04-13T12:36:12.219Z,17.00
2018-04-13T12:37:16.387Z,17.20
2018-04-13T12:38:20.244Z,17.20
2018-04-13T12:39:23.563Z,17.10
2018-04-13T12:40:26.859Z,17.20
2018-04-13T12:41:30.166Z,17.00
2018-04-13T12:42:33.514Z,17.10
2018-04-13T12:43:36.924Z,17.30
2018-04-13T12:44:40.265Z,17.40
2018-04-13T12:45:44.372Z,17.50
2018-04-13T12:46:47.773Z,17.50
2018-04-13T12:47:51.084Z,17.40
2018-04-13T12:48:54.497Z,17.30
2018-04-13T12:49:58.008Z,17.30
2018-04-13T12:51:01.333Z,17.40
2018-04-13T12:52:04.662Z,17.40
2018-04-13T12:53:08.822Z,17.40
2018-04-13T12:54:12.207Z,17.40
2018-04-13T12:55:15.580Z,17.50
2018-04-13T12:56:18.829Z,17.40
2018-04-13T12:57:22.196Z,17.30
2018-04-13T12:58:25.523Z,16.90
2018-04-13T12:59:28.903Z,16.60
2018-04-13T13:00:32.176Z,16.60
2018-04-13T13:01:35.519Z,16.80
2018-04-13T13:02:38.885Z,16.90
2018-04-13T13:03:42.187Z,17.00
2018-04-13T13:04:45.509Z,17.00
2018-04-13T13:05:49.582Z,17.00
2018-04-13T13:06:52.889Z,17.00
2018-04-13T13:07:56.208Z,17.00
2018-04-13T13:08:59.508Z,16.90
2018-04-13T13:10:02.941Z,17.00
2018-04-13T13:11:07.017Z,17.00
2018-04-13T13:12:10.335Z,17.00
2018-04-13T13:13:13.636Z,16.90
2018-04-13T13:14:16.958Z,16.90
2018-04-13T13:15:20.397Z,17.00
2018-04-13T13:16:25.220Z,17.20
2018-04-13T13:17:37.302Z,17.20
2018-04-13T13:18:41.030Z,17.30
2018-04-13T13:19:44.375Z,17.20
2018-04-13T13:20:48.513Z,17.20
2018-04-13T13:21:51.865Z,17.20
2018-04-13T13:22:55.977Z,17.20
2018-04-13T13:23:59.306Z,17.20
2018-04-13T13:25:02.615Z,17.30
2018-04-13T13:26:05.948Z,17.30
2018-04-13T13:27:09.304Z,17.30
2018-04-13T13:28:13.411Z,17.30
2018-04-13T13:29:16.726Z,17.30
2018-04-13T13:30:20.045Z,17.40
2018-04-13T13:31:23.392Z,17.40
2018-04-13T13:32:26.713Z,17.40
2018-04-13T13:33:30.035Z,17.40
2018-04-13T13:34:33.506Z,17.40
2018-04-13T13:35:36.883Z,17.30
2018-04-13T13:36:40.221Z,17.20
2018-04-13T13:37:43.557Z,17.20
2018-04-13T13:38:46.925Z,17.20
2018-04-13T13:39:50.263Z,17.10
2018-04-13T13:40:53.716Z,17.00
2018-04-13T13:41:57.147Z,17.10
2018-04-13T13:43:00.521Z,17.00
2018-04-13T13:44:03.908Z,17.00
2018-04-13T13:45:07.278Z,16.80
2018-04-13T13:46:10.673Z,16.80
2018-04-13T13:47:14.823Z,16.70
2018-04-13T13:48:18.256Z,16.70
2018-04-13T13:49:22.358Z,16.90
2018-04-13T13:50:25.716Z,16.90
2018-04-13T13:51:29.777Z,16.80
2018-04-13T13:52:34.098Z,16.90
2018-04-13T13:53:37.454Z,16.90